Terminal Aerodrome Forecast
Issued by NWS Jackson, KY

Home | Current Version | Previous Version | Text Only | Print | Product List | Glossary On
Versions: 1 2 3 4 5 6 7 8 9 10 11 12 13
477
FTUS43 KJKL 251723
TAFLOZ
TAF
KLOZ 251723Z 2518/2618 24005KT P6SM VCTS SCT030CB BKN060
     FM260400 00000KT P6SM SCT025 BKN100
     FM261400 VRB03KT P6SM SCT025 BKN035=

USA.gov is the U.S. government's official web portal to all federal, state and local government web resources and services.